TimeCST,TemperatureF,Dew PointF,Humidity,Sea Level PressureIn,VisibilityMPH,Wind Direction,Wind SpeedMPH,Gust SpeedMPH,PrecipitationIn,Events,Conditions,WindDirDegrees,DateUTC
12:55 AM,17.1,12.9,84,30.55,10.0,NE,3.5,-,N/A,,Clear,40,2013-11-29 06:55:00
1:55 AM,17.1,12.0,81,30.56,10.0,Calm,Calm,-,N/A,,Clear,0,2013-11-29 07:55:00
2:55 AM,15.1,10.9,84,30.57,10.0,ENE,3.5,-,N/A,,Clear,70,2013-11-29 08:55:00
3:55 AM,15.1,10.9,84,30.57,10.0,Calm,Calm,-,N/A,,Clear,0,2013-11-29 09:55:00
4:55 AM,16.0,12.0,84,30.58,10.0,ESE,3.5,-,N/A,,Clear,110,2013-11-29 10:55:00
5:55 AM,18.0,14.0,84,30.59,10.0,ESE,3.5,-,N/A,,Clear,110,2013-11-29 11:55:00
6:55 AM,18.0,12.9,81,30.60,10.0,ESE,4.6,-,N/A,,Clear,110,2013-11-29 12:55:00
7:55 AM,19.9,16.0,85,30.59,8.0,ESE,5.8,-,N/A,,Clear,120,2013-11-29 13:55:00
8:55 AM,25.0,19.9,81,30.60,9.0,SE,8.1,-,N/A,,Clear,140,2013-11-29 14:55:00
9:55 AM,30.0,21.0,69,30.59,10.0,SSE,12.7,-,N/A,,Clear,150,2013-11-29 15:55:00
10:55 AM,34.0,21.0,59,30.57,10.0,SSE,11.5,-,N/A,,Clear,160,2013-11-29 16:55:00
11:55 AM,37.9,21.0,51,30.54,10.0,SSE,11.5,-,N/A,,Clear,150,2013-11-29 17:55:00
12:55 PM,41.0,21.9,47,30.50,10.0,SSE,11.5,-,N/A,,Clear,150,2013-11-29 18:55:00
1:55 PM,42.1,21.9,45,30.46,10.0,SE,10.4,-,N/A,,Clear,130,2013-11-29 19:55:00
2:55 PM,42.1,23.0,47,30.44,10.0,SSE,12.7,-,N/A,,Clear,150,2013-11-29 20:55:00
3:55 PM,41.0,23.0,49,30.42,10.0,SE,11.5,-,N/A,,Clear,140,2013-11-29 21:55:00
4:55 PM,36.0,23.0,59,30.40,10.0,ESE,8.1,-,N/A,,Clear,120,2013-11-29 22:55:00
5:55 PM,33.1,21.9,64,30.39,10.0,ESE,6.9,-,N/A,,Clear,120,2013-11-29 23:55:00
6:55 PM,32.0,23.0,69,30.40,10.0,SE,8.1,-,N/A,,Clear,140,2013-11-30 00:55:00
7:55 PM,32.0,23.0,69,30.38,10.0,SE,9.2,-,N/A,,Clear,140,2013-11-30 01:55:00
8:55 PM,30.0,23.0,75,30.37,10.0,SE,8.1,-,N/A,,Clear,140,2013-11-30 02:55:00
9:55 PM,32.0,24.1,73,30.35,10.0,SE,9.2,-,N/A,,Clear,140,2013-11-30 03:55:00
10:55 PM,32.0,24.1,73,30.33,10.0,SSE,12.7,-,N/A,,Clear,160,2013-11-30 04:55:00
11:55 PM,30.0,23.0,75,30.32,10.0,SSE,9.2,-,N/A,,Clear,160,2013-11-30 05:55:00